Date,TemperatureHighF,TemperatureAvgF,TemperatureLowF,DewpointHighF,DewpointAvgF,DewpointLowF,HumidityHigh,HumidityAvg,HumidityLow,PressureMaxIn,PressureMinIn,WindSpeedMaxMPH,WindSpeedAvgMPH,GustSpeedMaxMPH,PrecipitationSumIn
2013-3-1,68,62,58,42,37,32,50,40,34,30.09,30.00,12,4,13,0.00
2013-3-2,65,58,52,38,33,31,51,39,33,30.15,30.06,17,4,17,0.00
2013-3-3,62,54,45,34,29,22,42,38,34,30.21,30.03,19,4,19,0.00
2013-3-4,70,56,44,34,32,28,56,40,25,30.27,30.18,10,2,12,0.00
2013-3-5,75,60,44,58,44,33,77,56,36,30.24,30.12,11,2,11,0.00
2013-3-6,68,63,56,61,44,32,82,52,30,30.21,30.03,15,5,22,0.12
2013-3-7,68,56,47,37,33,27,57,41,27,30.27,30.18,14,2,15,0.00
2013-3-8,78,60,47,42,38,35,67,48,22,30.27,30.21,10,2,11,0.00
2013-3-9,80,64,50,46,41,36,68,44,22,30.27,30.18,10,2,10,0.00
2013-3-10,84,69,60,48,46,41,61,45,26,30.24,30.12,13,3,13,0.00
2013-3-11,80,69,59,56,51,47,74,54,33,30.18,30.00,15,3,15,0.00
2013-3-12,70,67,60,65,56,46,90,68,52,30.12,29.94,20,4,20,0.25
2013-3-13,78,64,52,48,40,34,74,47,20,30.27,30.12,13,3,16,0.00
2013-3-14,72,62,54,42,32,24,52,35,19,30.30,30.21,16,4,18,0.00
2013-3-15,77,60,46,39,34,30,65,42,21,30.33,30.24,12,2,12,0.00
2013-3-16,77,61,47,47,42,35,66,51,31,30.27,30.15,12,2,13,0.00
2013-3-17,78,65,54,54,48,44,75,56,36,30.18,30.09,10,2,11,0.00
2013-3-18,77,68,61,65,58,51,89,72,54,30.12,29.94,14,3,14,0.04
2013-3-19,84,72,65,66,60,55,89,68,41,30.09,29.94,12,2,12,0.00
2013-3-20,74,68,61,61,57,50,86,71,44,30.06,29.88,13,2,14,0.29
2013-3-21,75,64,53,58,41,33,84,46,22,30.06,29.94,12,3,13,0.00
2013-3-22,80,64,49,65,48,35,82,58,38,30.06,29.94,13,2,13,0.17
2013-3-23,82,73,68,72,67,64,92,80,62,30.03,29.88,13,3,13,0.00
2013-3-24,80,73,70,72,69,67,96,86,68,29.91,29.76,15,4,17,0.33
2013-3-25,74,67,60,68,46,31,89,51,24,30.12,29.85,15,4,15,0.00
2013-3-26,64,59,52,38,32,27,45,36,28,30.30,30.12,20,4,20,0.00
2013-3-27,66,55,46,32,29,24,49,38,25,30.36,30.27,12,2,14,0.00
2013-3-28,74,58,45,35,32,30,61,41,21,30.33,30.27,13,2,15,0.00
2013-3-29,80,63,48,43,36,31,61,40,20,30.36,30.27,10,2,11,0.00
2013-3-30,79,65,53,48,43,38,66,47,28,30.30,30.21,11,2,11,0.00
2013-3-31,82,69,58,55,49,45,68,52,31,30.27,30.12,15,2,15,0.00